Terminal Aerodrome Forecast
Issued by NWS Newport/Morehead City, NC

Home | Current Version | Previous Version | Text Only | Print | Product List | Glossary On
Versions: 1 2 3 4 5 6 7 8 9 10 11 12 13 14 15 16 17 18 19 20 21
000
FTUS42 KMHX 162000 AAA
TAFEWN
TAF AMD
KEWN 162037Z 1621/1718 04010G20KT P6SM SKC
     FM162200 04010KT P6SM SKC
     FM170800 04010KT P6SM BKN025
     FM171400 04015G20KT P6SM OVC035=

USA.gov is the U.S. government's official web portal to all federal, state and local government web resources and services.